Barrington, Rhode Island
Current Conditions -  °F | °C
As of 8:51 PM on Saturday 22 Nov 2014 (Local Time) from KPVD Reporting Station
Broken Clouds Broken Clouds  
Wind Chill: 36°   Ceiling: 30000
Heat Index: 43°   Visibility: 10mi
Dew Point: 23°   Wind: 15mph
Humidity: 45%   Direction: 230°SW
Pressure: 30.14"   Gusts: 23mph
Location:  41.74°N, 71.31°W
Report Text: KPVD 230151Z 23013G20KT 10SM FEW034 FEW095 BKN300 06/M05 A3014 RMK AO2 SLP206 T00611050
Loading
Personal Weather Stations






























Interactive Weather Map New forecast layout! Learn more

10-Day Weather Forecast

Advertisements
Track Severe Weather on mobile